createdAt,value
2022-10-28T00:00:49.697Z,15.30
2022-10-28T00:01:51.772Z,15.30
2022-10-28T00:02:55.179Z,15.20
2022-10-28T00:04:01.152Z,15.20
2022-10-28T00:05:03.284Z,15.20
2022-10-28T00:06:08.129Z,15.20
2022-10-28T00:07:10.273Z,15.30
2022-10-28T00:08:13.311Z,15.30
2022-10-28T00:09:15.424Z,15.30
2022-10-28T00:10:18.621Z,15.30
2022-10-28T00:11:22.686Z,15.30
2022-10-28T00:12:25.825Z,15.40
2022-10-28T00:13:27.844Z,15.40
2022-10-28T00:14:32.647Z,15.30
2022-10-28T00:15:35.464Z,15.30
2022-10-28T00:16:39.102Z,15.30
2022-10-28T00:17:41.240Z,15.30
2022-10-28T00:18:44.681Z,15.30
2022-10-28T00:19:46.738Z,15.30
2022-10-28T00:20:49.784Z,15.40
2022-10-28T00:21:52.845Z,15.40
2022-10-28T00:22:54.956Z,15.40
2022-10-28T00:23:58.602Z,15.40
2022-10-28T00:25:00.681Z,15.50
2022-10-28T00:26:08.686Z,15.50
2022-10-28T00:27:11.706Z,15.50
2022-10-28T00:28:13.760Z,15.60
2022-10-28T00:29:18.614Z,15.60
2022-10-28T00:30:22.051Z,15.70
2022-10-28T00:31:26.929Z,15.70
2022-10-28T00:32:29.638Z,15.70
2022-10-28T00:33:33.165Z,15.60
2022-10-28T00:34:36.230Z,15.60
2022-10-28T00:35:38.282Z,15.60
2022-10-28T00:36:43.185Z,15.60
2022-10-28T00:37:45.258Z,15.50
2022-10-28T00:38:49.646Z,15.50
2022-10-28T00:39:51.681Z,15.50
2022-10-28T00:40:54.692Z,15.40
2022-10-28T00:41:59.088Z,15.40
2022-10-28T00:43:02.063Z,15.40
2022-10-28T00:44:43.361Z,15.40
2022-10-28T00:45:47.816Z,15.40
2022-10-28T00:46:53.196Z,15.40
2022-10-28T00:47:59.501Z,15.40
2022-10-28T00:49:05.927Z,15.40
2022-10-28T00:50:22.896Z,15.30
2022-10-28T00:51:27.542Z,15.30
2022-10-28T00:52:31.603Z,15.30
2022-10-28T00:53:35.163Z,15.20
2022-10-28T00:54:38.458Z,15.20
2022-10-28T00:55:42.703Z,15.10
2022-10-28T00:56:49.196Z,15.10
2022-10-28T00:57:56.510Z,15.00
2022-10-28T00:59:01.219Z,15.00
2022-10-28T01:00:07.199Z,15.00
2022-10-28T01:01:10.623Z,14.90
2022-10-28T01:02:13.936Z,14.90
2022-10-28T01:03:16.468Z,14.90
2022-10-28T01:04:20.736Z,14.90
2022-10-28T01:05:25.256Z,14.90
2022-10-28T01:06:29.656Z,14.90
2022-10-28T01:07:31.696Z,14.90
2022-10-28T01:08:34.743Z,14.80
2022-10-28T01:09:37.765Z,14.80
2022-10-28T01:10:57.437Z,14.80
2022-10-28T01:12:08.411Z,14.80
2022-10-28T01:13:17.078Z,14.80
2022-10-28T01:14:27.666Z,14.80
2022-10-28T01:15:38.944Z,14.80
2022-10-28T01:16:49.927Z,14.80
2022-10-28T01:18:01.509Z,14.80
2022-10-28T01:19:23.537Z,14.80
2022-10-28T01:21:02.122Z,14.70
2022-10-28T01:22:12.464Z,14.70
2022-10-28T01:23:22.749Z,14.70
2022-10-28T01:24:42.226Z,14.70
2022-10-28T01:26:02.920Z,14.60
2022-10-28T01:27:42.009Z,14.60
2022-10-28T01:29:03.571Z,14.60
2022-10-28T01:30:10.200Z,14.60
2022-10-28T01:31:36.414Z,14.60
2022-10-28T01:32:51.100Z,14.60
2022-10-28T01:33:58.303Z,14.60
2022-10-28T01:35:10.766Z,14.60
2022-10-28T01:36:20.375Z,14.60
2022-10-28T01:37:31.140Z,14.60
2022-10-28T01:38:42.991Z,14.70
2022-10-28T01:39:51.099Z,14.70
2022-10-28T01:41:00.052Z,14.80
2022-10-28T01:42:13.587Z,14.80
2022-10-28T01:43:24.212Z,14.90
2022-10-28T01:44:30.935Z,15.00
2022-10-28T01:45:40.751Z,15.00
2022-10-28T01:46:47.806Z,15.10
2022-10-28T01:47:56.404Z,15.20
2022-10-28T01:49:02.203Z,15.20
2022-10-28T01:50:09.145Z,15.20
2022-10-28T01:51:18.224Z,15.20
2022-10-28T01:52:25.839Z,15.20
2022-10-28T01:53:32.555Z,15.20
2022-10-28T01:54:36.076Z,15.30
2022-10-28T01:55:42.144Z,15.30
2022-10-28T01:56:46.115Z,15.30
2022-10-28T01:57:52.197Z,15.30
2022-10-28T01:58:57.787Z,15.30
2022-10-28T02:00:02.958Z,15.30
2022-10-28T02:01:14.951Z,15.30
2022-10-28T02:02:19.782Z,15.30
2022-10-28T02:03:22.399Z,15.40
2022-10-28T02:04:25.429Z,15.40
2022-10-28T02:05:43.329Z,15.40
2022-10-28T02:06:49.267Z,15.50
2022-10-28T02:07:58.237Z,15.50
2022-10-28T02:09:13.331Z,15.50
2022-10-28T02:10:19.621Z,15.40
2022-10-28T02:11:35.503Z,15.40
2022-10-28T02:12:39.696Z,15.40
2022-10-28T02:13:49.248Z,15.40
2022-10-28T02:15:24.478Z,15.30
2022-10-28T02:16:36.692Z,15.30
2022-10-28T02:17:51.856Z,15.30
2022-10-28T02:19:02.508Z,15.30
2022-10-28T02:20:14.513Z,15.30
2022-10-28T02:21:24.958Z,15.30
2022-10-28T02:22:33.692Z,15.30
2022-10-28T02:23:43.522Z,15.30
2022-10-28T02:24:53.435Z,15.30
2022-10-28T02:25:59.780Z,15.30
2022-10-28T02:27:10.563Z,15.30
2022-10-28T02:28:19.572Z,15.30
2022-10-28T02:29:30.613Z,15.30
2022-10-28T02:30:35.589Z,15.30
2022-10-28T02:31:44.951Z,15.30
2022-10-28T02:32:54.147Z,15.40
2022-10-28T02:34:02.288Z,15.40
2022-10-28T02:35:11.898Z,15.40
2022-10-28T02:36:18.289Z,15.40
2022-10-28T02:37:23.866Z,15.40
2022-10-28T02:38:32.383Z,15.50
2022-10-28T02:39:38.450Z,15.40
2022-10-28T02:40:46.544Z,15.50
2022-10-28T02:41:54.523Z,15.50
2022-10-28T02:43:02.937Z,15.50
2022-10-28T02:44:09.030Z,15.50
2022-10-28T02:45:16.492Z,15.50
2022-10-28T02:46:20.951Z,15.50
2022-10-28T02:47:28.831Z,15.50
2022-10-28T02:48:38.080Z,15.50
2022-10-28T02:49:44.331Z,15.50
2022-10-28T02:50:53.662Z,15.50
2022-10-28T02:51:59.542Z,15.50
2022-10-28T02:53:05.703Z,15.60
2022-10-28T02:54:11.917Z,15.60
2022-10-28T02:55:14.137Z,15.60
2022-10-28T02:56:18.971Z,15.60
2022-10-28T02:57:24.550Z,15.70
2022-10-28T02:58:28.022Z,15.70
2022-10-28T02:59:30.159Z,15.70
2022-10-28T03:00:33.246Z,15.70
2022-10-28T03:01:35.473Z,15.70
2022-10-28T03:02:38.853Z,15.60
2022-10-28T03:03:42.517Z,15.60
2022-10-28T03:04:45.553Z,15.60
2022-10-28T03:05:47.963Z,15.60
2022-10-28T03:06:51.023Z,15.60
2022-10-28T03:07:53.397Z,15.60
2022-10-28T03:08:56.677Z,15.60
2022-10-28T03:09:58.731Z,15.60
2022-10-28T03:11:01.797Z,15.60
2022-10-28T03:12:04.230Z,15.60
2022-10-28T03:13:07.299Z,15.60
2022-10-28T03:14:11.888Z,15.60
2022-10-28T03:15:17.671Z,15.60
2022-10-28T03:16:19.746Z,15.70
2022-10-28T03:17:22.769Z,15.70
2022-10-28T03:18:24.789Z,15.70
2022-10-28T03:19:29.190Z,15.70
2022-10-28T03:20:31.403Z,15.80
2022-10-28T03:21:34.453Z,15.80
2022-10-28T03:22:36.489Z,15.80
2022-10-28T03:23:39.471Z,15.90
2022-10-28T03:24:41.504Z,15.90
2022-10-28T03:25:44.564Z,16.00
2022-10-28T03:26:46.682Z,16.00
2022-10-28T03:27:49.689Z,16.00
2022-10-28T03:28:51.826Z,16.10
2022-10-28T03:29:54.824Z,16.10
2022-10-28T03:30:56.966Z,16.10
2022-10-28T03:32:00.128Z,16.20
2022-10-28T03:33:02.151Z,16.20
2022-10-28T03:34:05.237Z,16.20
2022-10-28T03:35:09.629Z,16.20
2022-10-28T03:36:12.700Z,16.20
2022-10-28T03:37:14.848Z,16.30
2022-10-28T03:38:17.937Z,16.20
2022-10-28T03:39:20.028Z,16.30
2022-10-28T03:40:23.116Z,16.20
2022-10-28T03:41:25.198Z,16.30
2022-10-28T03:42:28.269Z,16.30
2022-10-28T03:43:30.270Z,16.30
2022-10-28T03:44:33.357Z,16.20
2022-10-28T03:45:35.414Z,16.30
2022-10-28T03:46:38.626Z,16.30
2022-10-28T03:47:40.861Z,16.30
2022-10-28T03:48:43.940Z,16.30
2022-10-28T03:49:45.977Z,16.30
2022-10-28T03:50:53.687Z,16.30
2022-10-28T03:51:55.749Z,16.30
2022-10-28T03:52:58.805Z,16.30
2022-10-28T03:54:01.052Z,16.30
2022-10-28T03:55:04.444Z,16.30
2022-10-28T03:56:06.907Z,16.30
2022-10-28T03:57:09.958Z,16.30
2022-10-28T03:58:11.996Z,16.30
2022-10-28T03:59:17.734Z,16.30
2022-10-28T04:00:22.238Z,16.30
2022-10-28T04:01:25.593Z,16.30
2022-10-28T04:02:28.156Z,16.30
2022-10-28T04:03:31.410Z,16.30
2022-10-28T04:04:33.511Z,16.30
2022-10-28T04:05:36.516Z,16.30
2022-10-28T04:06:39.879Z,16.30
2022-10-28T04:07:42.882Z,16.30
2022-10-28T04:08:44.952Z,16.30
2022-10-28T04:09:49.781Z,16.40
2022-10-28T04:10:51.854Z,16.40
2022-10-28T04:11:54.948Z,16.40
2022-10-28T04:13:00.203Z,16.50
2022-10-28T04:14:03.261Z,16.50
2022-10-28T04:15:06.198Z,16.50
2022-10-28T04:16:09.252Z,16.50
2022-10-28T04:17:11.338Z,16.50
2022-10-28T04:18:14.439Z,16.50
2022-10-28T04:19:16.477Z,16.50
2022-10-28T04:20:19.690Z,16.50
2022-10-28T04:21:21.744Z,16.50
2022-10-28T04:22:26.145Z,16.50
2022-10-28T04:23:28.259Z,16.50
2022-10-28T04:24:31.339Z,16.50
2022-10-28T04:25:33.406Z,16.60
2022-10-28T04:26:36.429Z,16.60
2022-10-28T04:27:39.479Z,16.60
2022-10-28T04:28:41.903Z,16.60
2022-10-28T04:29:44.908Z,16.50
2022-10-28T04:30:47.604Z,16.50
2022-10-28T04:31:52.278Z,16.50
2022-10-28T04:32:54.756Z,16.50
2022-10-28T04:33:57.826Z,16.50
2022-10-28T04:34:59.955Z,16.50
2022-10-28T04:36:02.955Z,16.50
2022-10-28T04:37:05.017Z,16.50
2022-10-28T04:38:09.484Z,16.50
2022-10-28T04:39:11.551Z,16.50
2022-10-28T04:40:14.612Z,16.50
2022-10-28T04:41:16.915Z,16.50
2022-10-28T04:42:20.003Z,16.50
2022-10-28T04:43:22.150Z,16.50
2022-10-28T04:44:25.286Z,16.50
2022-10-28T04:45:27.511Z,16.50
2022-10-28T04:46:30.555Z,16.50
2022-10-28T04:47:32.587Z,16.50
2022-10-28T04:48:36.143Z,16.50
2022-10-28T04:49:38.944Z,16.40
2022-10-28T04:50:42.046Z,16.40
2022-10-28T04:52:55.534Z,16.50
2022-10-28T04:53:59.127Z,16.50
2022-10-28T04:55:02.158Z,16.60
2022-10-28T04:56:04.721Z,16.50
2022-10-28T04:57:07.825Z,16.60
2022-10-28T04:58:10.167Z,16.60
2022-10-28T04:59:13.458Z,16.60
2022-10-28T05:00:15.933Z,16.60
2022-10-28T05:01:19.006Z,16.60
2022-10-28T05:02:23.091Z,16.60
2022-10-28T05:03:26.280Z,16.70
2022-10-28T05:04:28.290Z,16.70
2022-10-28T05:05:31.570Z,16.70
2022-10-28T05:06:33.712Z,16.80
2022-10-28T05:07:36.760Z,16.80
2022-10-28T05:08:38.862Z,16.80
2022-10-28T05:09:43.259Z,16.80
2022-10-28T05:10:50.043Z,16.80
2022-10-28T05:11:52.173Z,16.80
2022-10-28T05:12:55.224Z,16.80
2022-10-28T05:13:58.459Z,16.80
2022-10-28T05:15:00.579Z,16.80
2022-10-28T05:16:03.628Z,16.80
2022-10-28T05:17:05.664Z,16.90
2022-10-28T05:18:08.664Z,16.90
2022-10-28T05:19:10.689Z,16.90
2022-10-28T05:20:15.230Z,16.90
2022-10-28T05:21:18.247Z,16.90
2022-10-28T05:22:20.314Z,16.90
2022-10-28T05:23:25.888Z,17.00
2022-10-28T05:24:32.937Z,17.00
2022-10-28T05:25:36.292Z,17.00
2022-10-28T05:26:39.325Z,17.00
2022-10-28T05:27:41.388Z,17.00
2022-10-28T05:28:44.407Z,17.00
2022-10-28T05:29:46.576Z,17.00
2022-10-28T05:30:49.626Z,17.10
2022-10-28T05:31:51.886Z,17.10
2022-10-28T05:33:01.297Z,17.10
2022-10-28T05:34:03.617Z,17.10
2022-10-28T05:35:07.529Z,17.10
2022-10-28T05:36:09.855Z,17.20
2022-10-28T05:37:12.928Z,17.20
2022-10-28T05:38:15.223Z,17.20
2022-10-28T05:39:18.259Z,17.20
2022-10-28T05:40:20.390Z,17.20
2022-10-28T05:41:24.760Z,17.20
2022-10-28T05:42:26.816Z,17.20
2022-10-28T05:43:29.903Z,17.20
2022-10-28T05:44:31.972Z,17.30
2022-10-28T05:45:34.978Z,17.30
2022-10-28T05:46:37.004Z,17.30
2022-10-28T05:47:44.527Z,17.30
2022-10-28T05:48:46.646Z,17.30
2022-10-28T05:49:49.778Z,17.40
2022-10-28T05:50:51.843Z,17.40
2022-10-28T05:51:54.871Z,17.40
2022-10-28T05:52:57.627Z,17.40
2022-10-28T05:54:00.629Z,17.40
2022-10-28T05:55:02.684Z,17.40
2022-10-28T05:56:06.308Z,17.40
2022-10-28T05:57:09.738Z,17.40
2022-10-28T05:58:12.864Z,17.40
2022-10-28T05:59:14.908Z,17.40
2022-10-28T06:00:19.829Z,17.40
2022-10-28T06:01:22.916Z,17.30
2022-10-28T06:02:24.995Z,17.30
2022-10-28T06:03:30.961Z,17.30
2022-10-28T06:04:33.537Z,17.20
2022-10-28T06:05:37.230Z,17.20
2022-10-28T06:06:39.364Z,17.20
2022-10-28T06:07:43.065Z,17.20
2022-10-28T06:08:45.107Z,17.30
2022-10-28T06:09:48.234Z,17.30
2022-10-28T06:10:56.323Z,17.30
2022-10-28T06:11:59.341Z,17.30
2022-10-28T06:13:03.898Z,17.30
2022-10-28T06:14:06.185Z,17.30
2022-10-28T06:15:09.920Z,17.30
2022-10-28T06:16:11.983Z,17.30
2022-10-28T06:17:14.975Z,17.30
2022-10-28T06:18:18.937Z,17.30
2022-10-28T06:19:22.219Z,17.30
2022-10-28T06:20:24.382Z,17.30
2022-10-28T06:21:27.378Z,17.30
2022-10-28T06:22:29.410Z,17.30
2022-10-28T06:23:32.476Z,17.20
2022-10-28T06:24:35.516Z,17.20
2022-10-28T06:25:37.553Z,17.20
2022-10-28T06:26:40.657Z,17.20
2022-10-28T06:27:42.853Z,17.20
2022-10-28T06:28:48.249Z,17.20
2022-10-28T06:29:50.378Z,17.20
2022-10-28T06:30:53.440Z,17.20
2022-10-28T06:31:55.497Z,17.30
2022-10-28T06:32:58.521Z,17.30
2022-10-28T06:34:00.612Z,17.30
2022-10-28T06:35:04.423Z,17.30
2022-10-28T06:36:07.059Z,17.30
2022-10-28T06:37:10.109Z,17.40
2022-10-28T06:38:12.205Z,17.40
2022-10-28T06:39:15.347Z,17.40
2022-10-28T06:40:17.383Z,17.50
2022-10-28T06:41:20.357Z,17.50
2022-10-28T06:42:22.485Z,17.60
2022-10-28T06:43:25.721Z,17.60
2022-10-28T06:44:30.143Z,17.70
2022-10-28T06:45:33.349Z,17.70
2022-10-28T06:46:38.654Z,17.80
2022-10-28T06:47:41.694Z,17.80
2022-10-28T06:48:44.841Z,17.80
2022-10-28T06:49:46.935Z,17.90
2022-10-28T06:50:49.913Z,17.90
2022-10-28T06:51:51.943Z,17.90
2022-10-28T06:52:57.070Z,18.00
2022-10-28T06:54:00.326Z,18.00
2022-10-28T06:55:02.383Z,18.00
2022-10-28T06:56:05.957Z,18.00
2022-10-28T06:57:08.004Z,18.00
2022-10-28T06:58:11.074Z,18.10
2022-10-28T06:59:14.246Z,18.10
2022-10-28T07:00:19.710Z,18.20
2022-10-28T07:01:23.414Z,18.20
2022-10-28T07:02:26.777Z,18.30
2022-10-28T07:03:28.891Z,18.30
2022-10-28T07:04:31.903Z,18.30
2022-10-28T07:05:34.928Z,18.30
2022-10-28T07:06:37.907Z,18.30
2022-10-28T07:07:39.932Z,18.30
2022-10-28T07:08:43.027Z,18.30
2022-10-28T07:09:46.453Z,18.30
2022-10-28T07:10:55.235Z,18.30
2022-10-28T07:12:00.948Z,18.40
2022-10-28T07:13:07.655Z,18.40
2022-10-28T07:14:10.055Z,18.40
2022-10-28T07:15:13.150Z,18.40
2022-10-28T07:16:17.514Z,18.40
2022-10-28T07:17:19.591Z,18.50
2022-10-28T07:18:23.432Z,18.50
2022-10-28T07:19:26.415Z,18.50
2022-10-28T07:20:29.383Z,18.50
2022-10-28T07:21:32.491Z,18.50
2022-10-28T07:22:34.543Z,18.50
2022-10-28T07:23:37.579Z,18.60
2022-10-28T07:24:39.626Z,18.60
2022-10-28T07:25:43.074Z,18.60
2022-10-28T07:26:48.164Z,18.60
2022-10-28T07:27:51.490Z,18.60
2022-10-28T07:28:54.266Z,18.60
2022-10-28T07:29:57.269Z,18.60
2022-10-28T07:31:02.582Z,18.60
2022-10-28T07:32:07.327Z,18.70
2022-10-28T07:33:10.348Z,18.70
2022-10-28T07:34:13.360Z,18.70
2022-10-28T07:35:16.611Z,18.70
2022-10-28T07:36:19.653Z,18.70
2022-10-28T07:37:21.802Z,18.70
2022-10-28T07:38:24.875Z,18.70
2022-10-28T07:39:27.099Z,18.80
2022-10-28T07:40:30.172Z,18.70
2022-10-28T07:41:33.301Z,18.80
2022-10-28T07:42:35.548Z,18.80
2022-10-28T07:43:39.367Z,18.80
2022-10-28T07:44:41.492Z,18.80
2022-10-28T07:45:44.653Z,18.80
2022-10-28T07:46:47.642Z,18.80
2022-10-28T07:47:52.071Z,18.80
2022-10-28T07:48:55.100Z,18.80
2022-10-28T07:49:58.145Z,18.90
2022-10-28T07:51:02.669Z,18.90
2022-10-28T07:52:04.927Z,18.90
2022-10-28T07:53:07.955Z,18.90
2022-10-28T07:54:10.300Z,19.00
2022-10-28T07:55:13.340Z,19.00
2022-10-28T07:56:16.423Z,19.00
2022-10-28T07:57:18.523Z,19.00
2022-10-28T07:58:21.699Z,19.00
2022-10-28T07:59:26.855Z,19.10
2022-10-28T08:00:30.175Z,19.10
2022-10-28T08:01:32.496Z,19.10
2022-10-28T08:02:35.761Z,19.10
2022-10-28T08:03:39.703Z,19.20
2022-10-28T08:04:42.741Z,19.20
2022-10-28T08:05:44.832Z,19.20
2022-10-28T08:06:47.976Z,19.30
2022-10-28T08:07:51.330Z,19.30
2022-10-28T08:08:55.358Z,19.30
2022-10-28T08:09:58.415Z,19.40
2022-10-28T08:11:09.035Z,19.40
2022-10-28T08:12:14.879Z,19.50
2022-10-28T08:13:17.875Z,19.50
2022-10-28T08:14:21.001Z,19.50
2022-10-28T08:15:24.245Z,19.60
2022-10-28T08:16:28.989Z,19.70
2022-10-28T08:17:31.998Z,19.70
2022-10-28T08:18:35.478Z,19.80
2022-10-28T08:19:39.869Z,19.80
2022-10-28T08:20:41.875Z,19.90
2022-10-28T08:21:44.862Z,19.90
2022-10-28T08:22:48.006Z,20.00
2022-10-28T08:23:50.048Z,20.10
2022-10-28T08:24:53.138Z,20.10
2022-10-28T08:25:55.507Z,20.20
2022-10-28T08:26:58.582Z,20.30
2022-10-28T08:28:00.612Z,20.30
2022-10-28T08:29:03.598Z,20.40
2022-10-28T08:30:06.820Z,20.40
2022-10-28T08:31:12.165Z,20.50
2022-10-28T08:32:14.226Z,20.50
2022-10-28T08:33:17.519Z,20.60
2022-10-28T08:35:29.904Z,20.70
2022-10-28T08:36:33.129Z,20.80
2022-10-28T08:37:35.827Z,20.90
2022-10-28T08:38:44.934Z,21.10
2022-10-28T08:39:48.454Z,21.40
2022-10-28T08:41:01.053Z,21.70
2022-10-28T08:42:22.489Z,22.00
2022-10-28T08:43:46.329Z,22.20
2022-10-28T08:45:18.177Z,22.40
2022-10-28T08:46:28.074Z,22.80
2022-10-28T08:47:40.440Z,23.10
2022-10-28T08:48:44.281Z,23.40
2022-10-28T08:49:49.449Z,23.60
2022-10-28T08:51:00.137Z,23.80
2022-10-28T08:52:09.580Z,23.90
2022-10-28T08:53:18.279Z,24.10
2022-10-28T08:54:25.390Z,24.30
2022-10-28T08:55:31.687Z,24.50
2022-10-28T08:56:37.266Z,24.60
2022-10-28T08:57:44.140Z,24.70
2022-10-28T08:58:50.028Z,24.80
2022-10-28T08:59:54.746Z,24.70
2022-10-28T09:00:59.982Z,24.80
2022-10-28T09:02:14.382Z,24.90
2022-10-28T09:03:20.509Z,25.00
2022-10-28T09:04:28.619Z,24.90
2022-10-28T09:05:31.682Z,25.00
2022-10-28T09:06:36.016Z,25.10
2022-10-28T09:07:38.145Z,25.10
2022-10-28T09:08:44.553Z,25.10
2022-10-28T09:09:48.396Z,25.40
2022-10-28T09:11:14.731Z,25.50
2022-10-28T09:12:27.726Z,25.80
2022-10-28T09:13:39.057Z,26.10
2022-10-28T09:15:10.601Z,26.20
2022-10-28T09:16:22.729Z,26.10
2022-10-28T09:17:37.207Z,26.20
2022-10-28T09:18:51.624Z,26.40
2022-10-28T09:20:00.566Z,26.50
2022-10-28T09:21:10.545Z,26.70
2022-10-28T09:22:24.654Z,26.80
2022-10-28T09:23:31.827Z,27.10
2022-10-28T09:24:46.308Z,27.30
2022-10-28T09:26:00.952Z,27.30
2022-10-28T09:27:12.635Z,27.30
2022-10-28T09:28:26.502Z,27.50
2022-10-28T09:29:44.368Z,27.70
2022-10-28T09:30:56.226Z,28.00
2022-10-28T09:32:04.860Z,28.30
2022-10-28T09:33:25.480Z,28.60
2022-10-28T09:34:36.092Z,28.90
2022-10-28T09:35:43.468Z,29.20
2022-10-28T09:36:50.915Z,29.30
2022-10-28T09:38:00.861Z,29.50
2022-10-28T09:39:06.001Z,29.60
2022-10-28T09:40:16.981Z,29.70
2022-10-28T09:41:25.032Z,29.80
2022-10-28T09:42:29.967Z,29.90
2022-10-28T09:43:35.230Z,30.00
2022-10-28T09:44:45.224Z,30.00
2022-10-28T09:45:49.229Z,30.00
2022-10-28T09:46:56.043Z,30.00
2022-10-28T09:48:03.991Z,29.80
2022-10-28T09:49:12.618Z,29.80
2022-10-28T09:50:19.675Z,29.80
2022-10-28T09:51:32.198Z,29.60
2022-10-28T09:52:40.880Z,29.40
2022-10-28T09:53:52.923Z,29.30
2022-10-28T09:54:56.228Z,29.30
2022-10-28T09:55:59.418Z,29.50
2022-10-28T09:57:03.970Z,29.60
2022-10-28T09:58:06.302Z,29.80
2022-10-28T09:59:14.565Z,29.90
2022-10-28T10:00:17.799Z,30.10
2022-10-28T10:01:21.581Z,30.40
2022-10-28T10:02:28.922Z,30.80
2022-10-28T10:03:31.287Z,31.00
2022-10-28T10:04:35.727Z,31.40
2022-10-28T10:05:43.159Z,31.70
2022-10-28T10:06:49.922Z,32.00
2022-10-28T10:07:56.568Z,32.20
2022-10-28T10:09:01.622Z,32.20
2022-10-28T10:10:12.433Z,32.10
2022-10-28T10:11:27.188Z,32.00
2022-10-28T10:12:32.237Z,31.90
2022-10-28T10:13:39.786Z,31.70
2022-10-28T10:14:47.661Z,31.50
2022-10-28T10:15:55.064Z,31.20
2022-10-28T10:17:02.076Z,30.90
2022-10-28T10:18:07.033Z,30.70
2022-10-28T10:19:12.036Z,30.50
2022-10-28T10:20:16.955Z,30.40
2022-10-28T10:21:40.523Z,30.20
2022-10-28T10:22:45.454Z,29.90
2022-10-28T10:23:47.486Z,29.50
2022-10-28T10:24:51.908Z,29.30
2022-10-28T10:25:55.734Z,29.10
2022-10-28T10:27:01.242Z,29.10
2022-10-28T10:28:07.565Z,29.00
2022-10-28T10:29:13.216Z,28.90
2022-10-28T10:30:19.733Z,29.00
2022-10-28T10:31:26.229Z,29.00
2022-10-28T10:32:32.414Z,29.00
2022-10-28T10:33:37.680Z,28.80
2022-10-28T10:34:44.664Z,28.90
2022-10-28T10:35:59.151Z,28.80
2022-10-28T10:38:16.936Z,28.80
2022-10-28T10:39:23.261Z,28.60
2022-10-28T10:40:31.244Z,28.40
2022-10-28T10:41:34.508Z,28.20
2022-10-28T10:42:42.713Z,28.00
2022-10-28T10:43:54.995Z,28.00
2022-10-28T10:45:02.350Z,28.00
2022-10-28T10:46:07.318Z,28.10
2022-10-28T10:47:22.738Z,28.10
2022-10-28T10:48:25.970Z,28.00
2022-10-28T10:49:29.072Z,28.00
2022-10-28T10:50:33.365Z,28.10
2022-10-28T10:51:40.083Z,28.00
2022-10-28T10:52:49.445Z,28.00
2022-10-28T10:53:57.709Z,28.10
2022-10-28T10:55:05.211Z,28.20
2022-10-28T10:56:13.083Z,28.20
2022-10-28T10:57:19.606Z,28.20
2022-10-28T10:58:24.818Z,28.30
2022-10-28T10:59:30.323Z,28.40
2022-10-28T11:00:37.663Z,28.40
2022-10-28T11:01:41.811Z,28.40
2022-10-28T11:02:48.998Z,28.50
2022-10-28T11:05:09.101Z,28.60
2022-10-28T11:06:23.917Z,28.60
2022-10-28T11:07:28.306Z,28.60
2022-10-28T11:08:38.213Z,28.60
2022-10-28T11:09:42.280Z,28.60
2022-10-28T11:10:45.357Z,28.70
2022-10-28T11:11:49.906Z,28.80
2022-10-28T11:12:54.182Z,29.00
2022-10-28T11:14:05.450Z,29.10
2022-10-28T11:15:23.720Z,29.30
2022-10-28T11:16:26.790Z,29.40
2022-10-28T11:18:44.199Z,29.70
2022-10-28T11:19:46.266Z,29.90
2022-10-28T11:20:56.046Z,30.10
2022-10-28T11:22:22.882Z,30.20
2022-10-28T11:23:46.621Z,30.40
2022-10-28T11:25:17.517Z,30.50
2022-10-28T11:26:22.497Z,30.60
2022-10-28T11:27:34.330Z,30.70
2022-10-28T11:28:53.023Z,30.80
2022-10-28T11:29:56.994Z,31.10
2022-10-28T11:31:09.205Z,31.30
2022-10-28T11:32:32.871Z,31.50
2022-10-28T11:33:45.220Z,31.60
2022-10-28T11:35:10.428Z,31.80
2022-10-28T11:36:20.517Z,31.90
2022-10-28T11:37:31.859Z,32.00
2022-10-28T11:38:57.476Z,32.00
2022-10-28T11:40:13.424Z,31.90
2022-10-28T11:41:29.746Z,31.80
2022-10-28T11:42:42.843Z,31.70
2022-10-28T11:43:54.559Z,31.70
2022-10-28T11:45:06.380Z,31.50
2022-10-28T11:46:17.622Z,31.40
2022-10-28T11:47:36.424Z,31.30
2022-10-28T11:48:55.949Z,31.30
2022-10-28T11:50:14.110Z,31.20
2022-10-28T11:51:29.207Z,31.00
2022-10-28T11:52:45.446Z,30.90
2022-10-28T11:54:16.770Z,30.90
2022-10-28T11:55:29.143Z,30.80
2022-10-28T11:56:37.917Z,30.80
2022-10-28T11:57:54.347Z,30.90
2022-10-28T11:59:14.006Z,30.90
2022-10-28T12:00:34.236Z,31.00
2022-10-28T12:01:46.220Z,31.10
2022-10-28T12:03:00.414Z,31.30
2022-10-28T12:04:19.271Z,31.40
2022-10-28T12:05:27.345Z,31.60
2022-10-28T12:06:49.514Z,31.70
2022-10-28T12:08:07.016Z,31.80
2022-10-28T12:09:20.178Z,31.90
2022-10-28T12:10:53.765Z,31.90
2022-10-28T12:12:07.747Z,31.90
2022-10-28T12:13:20.413Z,31.90
2022-10-28T12:14:33.636Z,32.00
2022-10-28T12:15:43.134Z,32.20
2022-10-28T12:16:52.818Z,32.40
2022-10-28T12:18:06.178Z,32.50
2022-10-28T12:19:14.260Z,32.70
2022-10-28T12:20:24.438Z,32.90
2022-10-28T12:22:46.689Z,33.10
2022-10-28T12:23:51.004Z,33.10
2022-10-28T12:24:55.789Z,33.10
2022-10-28T12:26:00.451Z,33.10
2022-10-28T12:27:15.378Z,33.10
2022-10-28T12:28:26.188Z,33.10
2022-10-28T12:29:33.508Z,33.00
2022-10-28T12:30:41.687Z,32.90
2022-10-28T12:31:48.651Z,32.90
2022-10-28T12:32:56.476Z,33.00
2022-10-28T12:34:02.764Z,33.10
2022-10-28T12:35:14.030Z,33.10
2022-10-28T12:36:23.871Z,33.20
2022-10-28T12:37:32.522Z,33.30
2022-10-28T12:38:40.518Z,33.40
2022-10-28T12:39:51.807Z,33.30
2022-10-28T12:41:03.497Z,33.10
2022-10-28T12:42:16.062Z,33.00
2022-10-28T12:43:25.104Z,33.00
2022-10-28T12:44:29.681Z,32.90
2022-10-28T12:45:33.954Z,32.80
2022-10-28T12:47:59.253Z,32.70
2022-10-28T12:49:08.531Z,32.60
2022-10-28T12:50:19.526Z,32.60
2022-10-28T12:51:28.067Z,32.60
2022-10-28T12:52:48.388Z,32.50
2022-10-28T12:53:58.452Z,32.40
2022-10-28T12:55:07.299Z,32.40
2022-10-28T12:56:15.379Z,32.40
2022-10-28T12:57:20.972Z,32.50
2022-10-28T12:58:30.688Z,32.50
2022-10-28T12:59:39.473Z,32.40
2022-10-28T13:00:45.283Z,32.30
2022-10-28T13:01:50.943Z,32.30
2022-10-28T13:02:59.422Z,32.20
2022-10-28T13:04:01.951Z,32.00
2022-10-28T13:05:06.562Z,31.70
2022-10-28T13:06:34.538Z,31.40
2022-10-28T13:07:54.832Z,30.90
2022-10-28T13:09:39.113Z,30.60
2022-10-28T13:10:46.761Z,30.10
2022-10-28T13:12:28.559Z,29.80
2022-10-28T13:13:46.457Z,29.60
2022-10-28T13:15:16.780Z,29.40
2022-10-28T13:16:46.632Z,29.30
2022-10-28T13:18:05.572Z,29.30
2022-10-28T13:19:25.903Z,29.40
2022-10-28T13:20:40.613Z,29.40
2022-10-28T13:21:58.689Z,29.50
2022-10-28T13:23:11.732Z,29.50
2022-10-28T13:24:21.082Z,29.50
2022-10-28T13:25:42.470Z,29.50
2022-10-28T13:26:46.930Z,29.50
2022-10-28T13:27:56.682Z,29.50
2022-10-28T13:29:03.627Z,29.40
2022-10-28T13:30:08.422Z,29.30
2022-10-28T13:31:12.219Z,29.30
2022-10-28T13:32:38.838Z,29.20
2022-10-28T13:33:48.989Z,29.20
2022-10-28T13:34:52.059Z,29.10
2022-10-28T13:35:55.315Z,29.10
2022-10-28T13:37:00.777Z,29.00
2022-10-28T13:38:09.605Z,29.00
2022-10-28T13:39:25.748Z,29.00
2022-10-28T13:41:05.623Z,29.00
2022-10-28T13:42:46.645Z,29.10
2022-10-28T13:44:14.072Z,29.20
2022-10-28T13:45:53.723Z,29.40
2022-10-28T13:47:30.814Z,29.50
2022-10-28T13:48:45.686Z,29.60
2022-10-28T13:50:21.496Z,29.70
2022-10-28T13:51:32.261Z,29.90
2022-10-28T13:52:35.231Z,30.10
2022-10-28T13:53:40.635Z,30.30
2022-10-28T13:54:55.118Z,30.40
2022-10-28T13:55:58.184Z,30.50
2022-10-28T13:57:07.732Z,30.60
2022-10-28T13:58:20.864Z,30.60
2022-10-28T13:59:30.324Z,30.70
2022-10-28T14:00:36.346Z,30.60
2022-10-28T14:02:34.310Z,30.60
2022-10-28T14:03:37.264Z,30.50
2022-10-28T14:04:40.728Z,30.50
2022-10-28T14:05:56.249Z,30.50
2022-10-28T14:07:04.183Z,30.50
2022-10-28T14:08:09.406Z,30.50
2022-10-28T14:09:21.509Z,30.70
2022-10-28T14:10:27.098Z,30.70
2022-10-28T14:11:30.377Z,30.70
2022-10-28T14:12:34.599Z,30.80
2022-10-28T14:13:41.264Z,30.90
2022-10-28T14:15:04.382Z,31.00
2022-10-28T14:16:23.476Z,31.10
2022-10-28T14:17:30.680Z,31.20
2022-10-28T14:18:43.903Z,31.30
2022-10-28T14:19:49.630Z,31.40
2022-10-28T14:21:00.742Z,31.40
2022-10-28T14:22:07.049Z,31.40
2022-10-28T14:23:50.897Z,31.40
2022-10-28T14:24:53.970Z,31.30
2022-10-28T14:26:05.456Z,31.00
2022-10-28T14:27:30.461Z,30.60
2022-10-28T14:28:53.113Z,30.40
2022-10-28T14:30:22.496Z,30.20
2022-10-28T14:31:42.608Z,29.90
2022-10-28T14:33:03.957Z,29.70
2022-10-28T14:34:44.725Z,29.40
2022-10-28T14:35:49.197Z,29.30